Colorado Springs Aviation Decision Support Information(Rapid Prototype)

Last Page Refresh(page does not auto refresh):
000
FTUS45 KPUB 272320
TAFCOS
TAF
KCOS 272320Z 2800/2824 17007KT P6SM BKN200
     FM280400 36007KT P6SM BKN200
     FM281900 16008KT P6SM SCT200=

Please provide any comments or suggestion to the web master email addresse below.


USA.gov is the U.S. government's official web portal to all federal, state and local government web resources and services.